Time;durP1;ratioP1;P1;durP2;ratioP2;P2;SDS_P1;SDS_P2;PMS_P1;PMS_P2;Temp;Humidity;BMP_temperature;BMP_pressure;BME280_temperature;BME280_humidity;BME280_pressure;Samples;Min_cycle;Max_cycle;Signal;HPM_P1;HPM_P2
2022/03/11 00:01:43;;;;;;;43.00;22.27;;;3.00;99.90;;;;;;5073666;28;20082;-71
2022/03/11 00:04:08;;;;;;;37.70;21.33;;;3.00;99.90;;;;;;5073472;28;20028;-71
2022/03/11 00:06:35;;;;;;;38.67;20.95;;;3.00;99.90;;;;;;5073765;28;20142;-71
2022/03/11 00:09:01;;;;;;;34.28;18.73;;;2.90;99.90;;;;;;5073642;28;20028;-71
2022/03/11 00:11:27;;;;;;;38.90;20.52;;;2.80;99.90;;;;;;5073392;28;20104;-71
2022/03/11 00:13:52;;;;;;;33.13;18.83;;;2.80;99.90;;;;;;5072040;28;20452;-71
2022/03/11 00:16:19;;;;;;;39.22;21.50;;;2.80;99.90;;;;;;5073129;28;20040;-71
2022/03/11 00:18:45;;;;;;;32.97;19.40;;;2.80;99.90;;;;;;5073272;28;20034;-71
2022/03/11 00:21:13;;;;;;;36.40;19.80;;;2.70;99.90;;;;;;5073234;28;20021;-71
2022/03/11 00:23:40;;;;;;;34.72;19.08;;;2.70;99.90;;;;;;5073120;28;20500;-71
2022/03/11 00:26:06;;;;;;;37.25;19.05;;;2.70;99.90;;;;;;5073128;28;20086;-71
2022/03/11 00:28:31;;;;;;;36.80;19.63;;;2.70;99.90;;;;;;5073208;28;20099;-71
2022/03/11 00:30:57;;;;;;;33.35;17.60;;;2.70;99.90;;;;;;5073407;28;20112;-71
2022/03/11 00:33:23;;;;;;;43.17;19.13;;;2.70;99.90;;;;;;5073489;28;20104;-71
2022/03/11 00:35:49;;;;;;;31.08;17.10;;;2.80;99.90;;;;;;5073086;28;20048;-72
2022/03/11 00:38:15;;;;;;;34.65;18.52;;;2.70;99.90;;;;;;5073269;28;20032;-71
2022/03/11 00:40:40;;;;;;;39.38;18.55;;;2.70;99.90;;;;;;5073066;28;20021;-71
2022/03/11 00:43:06;;;;;;;34.83;18.17;;;2.70;99.90;;;;;;5073343;28;20376;-71
2022/03/11 00:45:31;;;;;;;33.47;18.58;;;2.70;99.90;;;;;;5074893;28;20123;-71
2022/03/11 00:47:57;;;;;;;31.10;18.48;;;2.60;99.90;;;;;;5077005;28;20028;-71
2022/03/11 00:50:23;;;;;;;35.25;18.75;;;2.60;99.90;;;;;;5075299;28;20075;-72
2022/03/11 00:52:49;;;;;;;32.22;16.95;;;2.50;99.90;;;;;;5076685;28;20021;-71
2022/03/11 00:55:14;;;;;;;32.25;17.85;;;2.40;99.90;;;;;;5076448;28;20029;-71
2022/03/11 00:57:40;;;;;;;31.85;18.08;;;2.40;99.90;;;;;;5076756;28;20027;-71
2022/03/11 01:00:07;;;;;;;33.28;18.60;;;2.30;99.90;;;;;;5076343;28;20078;-71
2022/03/11 01:02:39;;;;;;;38.15;17.65;;;2.30;99.90;;;;;;5076471;28;20017;-71
2022/03/11 01:05:06;;;;;;;33.20;18.38;;;2.30;99.90;;;;;;5076765;28;20465;-71
2022/03/11 01:07:32;;;;;;;31.55;17.52;;;2.30;99.90;;;;;;5076278;28;20067;-71
2022/03/11 01:09:58;;;;;;;32.05;17.00;;;2.30;99.90;;;;;;5076283;28;20055;-71
2022/03/11 01:12:23;;;;;;;34.67;17.83;;;2.30;99.90;;;;;;5075150;28;20500;-71
2022/03/11 01:14:49;;;;;;;29.75;15.77;;;2.30;99.90;;;;;;5076957;28;20033;-71
2022/03/11 01:17:15;;;;;;;27.60;15.82;;;2.30;99.90;;;;;;5076542;28;20396;-71
2022/03/11 01:19:41;;;;;;;32.20;16.83;;;2.30;99.90;;;;;;5076093;28;20067;-71
2022/03/11 01:22:07;;;;;;;28.85;15.82;;;2.20;99.90;;;;;;5074871;28;20028;-71
2022/03/11 01:24:33;;;;;;;40.03;17.92;;;2.00;99.90;;;;;;5076073;28;20036;-71
2022/03/11 01:26:59;;;;;;;33.55;16.05;;;2.00;99.90;;;;;;5075978;28;20016;-71
2022/03/11 01:29:25;;;;;;;37.28;16.92;;;2.00;99.90;;;;;;5075961;28;20036;-71
2022/03/11 01:31:51;;;;;;;27.35;15.80;;;2.00;99.90;;;;;;5076055;28;20021;-71
2022/03/11 01:34:16;;;;;;;36.67;15.60;;;1.90;99.90;;;;;;5076442;28;20028;-71
2022/03/11 01:36:42;;;;;;;29.45;16.65;;;1.80;99.90;;;;;;5075889;28;20024;-71
2022/03/11 01:39:08;;;;;;;34.92;17.88;;;1.70;99.90;;;;;;5075969;28;20036;-71
2022/03/11 01:41:34;;;;;;;34.15;16.73;;;1.60;99.90;;;;;;5076000;28;20491;-71
2022/03/11 01:44:02;;;;;;;43.13;16.23;;;1.50;99.90;;;;;;5075670;28;20100;-71
2022/03/11 01:46:28;;;;;;;28.58;15.90;;;1.50;99.90;;;;;;5075500;28;20035;-71
2022/03/11 01:48:55;;;;;;;29.50;15.30;;;1.50;99.90;;;;;;5075666;28;20024;-71
2022/03/11 01:51:21;;;;;;;30.20;16.20;;;1.40;99.90;;;;;;5075882;28;20056;-71
2022/03/11 01:53:47;;;;;;;31.50;15.90;;;1.30;99.90;;;;;;5075624;28;20020;-71
2022/03/11 01:56:14;;;;;;;32.22;17.27;;;1.30;99.90;;;;;;5075039;28;20082;-71
2022/03/11 01:58:39;;;;;;;32.90;15.50;;;1.30;99.90;;;;;;5075306;28;20477;-71
2022/03/11 02:01:06;;;;;;;27.17;15.45;;;1.30;99.90;;;;;;5075677;28;20037;-71
2022/03/11 02:03:32;;;;;;;27.58;15.30;;;1.30;99.90;;;;;;5075354;28;20048;-71
2022/03/11 02:06:01;;;;;;;33.13;14.38;;;1.30;99.90;;;;;;5075242;28;20036;-71
2022/03/11 02:08:26;;;;;;;31.48;15.85;;;1.20;99.90;;;;;;5075248;28;20055;-71
2022/03/11 02:10:53;;;;;;;26.27;15.18;;;1.20;99.90;;;;;;5075276;28;20032;-71
2022/03/11 02:13:18;;;;;;;29.08;15.30;;;1.20;99.90;;;;;;5075364;28;20025;-71
2022/03/11 02:15:44;;;;;;;25.65;13.90;;;1.20;99.90;;;;;;5074966;28;20048;-71
2022/03/11 02:18:10;;;;;;;29.27;14.25;;;1.20;99.90;;;;;;5075617;28;20028;-71
2022/03/11 02:20:35;;;;;;;30.58;14.65;;;1.10;99.90;;;;;;5074952;28;20024;-71
2022/03/11 02:23:03;;;;;;;26.13;14.27;;;1.00;99.90;;;;;;5075470;28;20021;-71
2022/03/11 02:25:29;;;;;;;21.42;12.55;;;1.00;99.90;;;;;;5075099;28;20475;-71
2022/03/11 02:27:54;;;;;;;30.92;14.35;;;1.00;99.90;;;;;;5075038;28;20033;-71
2022/03/11 02:30:21;;;;;;;28.75;14.15;;;0.90;99.90;;;;;;5074902;28;20021;-71
2022/03/11 02:32:50;;;;;;;28.92;15.77;;;0.90;99.90;;;;;;5074726;28;20365;-71
2022/03/11 02:35:17;;;;;;;30.70;13.25;;;0.90;99.90;;;;;;5074586;28;20035;-71
2022/03/11 02:37:42;;;;;;;27.27;14.75;;;0.90;99.90;;;;;;5074840;28;20060;-71
2022/03/11 02:40:10;;;;;;;27.77;14.35;;;0.80;99.90;;;;;;5074580;28;20056;-71
2022/03/11 02:42:36;;;;;;;25.30;13.35;;;0.80;99.90;;;;;;5074510;28;20024;-71
2022/03/11 02:45:04;;;;;;;27.77;15.13;;;0.80;99.90;;;;;;5074574;28;20464;-71
2022/03/11 02:47:30;;;;;;;34.50;12.80;;;0.80;99.90;;;;;;5074263;28;20473;-71
2022/03/11 02:49:56;;;;;;;28.20;14.05;;;0.80;99.90;;;;;;5074430;28;20077;-71
2022/03/11 02:52:22;;;;;;;26.23;13.52;;;0.80;99.90;;;;;;5075005;28;20032;-71
2022/03/11 02:54:48;;;;;;;27.75;13.57;;;0.70;99.90;;;;;;5074270;28;20028;-71
2022/03/11 02:57:15;;;;;;;28.58;15.32;;;0.70;99.90;;;;;;5074217;28;20024;-71
2022/03/11 02:59:43;;;;;;;26.45;14.32;;;0.60;99.90;;;;;;5074231;28;20487;-71
2022/03/11 03:02:09;;;;;;;31.30;14.90;;;0.60;99.90;;;;;;5074435;28;20407;-71
2022/03/11 03:04:34;;;;;;;29.02;13.15;;;0.60;99.90;;;;;;5074206;28;20086;-71
2022/03/11 03:07:00;;;;;;;32.03;13.90;;;0.50;99.90;;;;;;5074104;28;20016;-71
2022/03/11 03:09:25;;;;;;;29.27;14.15;;;0.50;99.90;;;;;;5073755;28;20074;-71
2022/03/11 03:11:52;;;;;;;28.17;13.48;;;0.50;99.90;;;;;;5074080;28;20131;-71
2022/03/11 03:14:18;;;;;;;29.80;14.48;;;0.40;99.90;;;;;;5074179;28;20021;-71
2022/03/11 03:16:47;;;;;;;29.88;14.80;;;0.40;99.90;;;;;;5074044;28;20058;-71
2022/03/11 03:19:13;;;;;;;27.92;12.77;;;0.40;99.90;;;;;;5074539;28;20048;-74
2022/03/11 03:21:39;;;;;;;29.80;14.95;;;0.30;99.90;;;;;;5074101;28;20414;-75
2022/03/11 03:24:08;;;;;;;27.30;14.07;;;0.40;99.90;;;;;;5074541;28;20046;-75
2022/03/11 03:26:33;;;;;;;25.73;13.27;;;0.30;99.90;;;;;;5074200;28;20029;-74
2022/03/11 03:28:59;;;;;;;26.58;13.48;;;0.20;99.90;;;;;;5074525;28;20046;-74
2022/03/11 03:31:24;;;;;;;28.08;13.15;;;0.20;99.90;;;;;;5074745;28;20384;-75
2022/03/11 03:33:50;;;;;;;30.80;13.93;;;0.20;99.90;;;;;;5074041;28;20032;-74
2022/03/11 03:36:16;;;;;;;40.72;15.32;;;0.10;99.90;;;;;;5074014;28;20025;-75
2022/03/11 03:38:42;;;;;;;33.28;14.43;;;0.10;99.90;;;;;;5074215;28;20035;-74
2022/03/11 03:41:08;;;;;;;24.95;13.38;;;0.10;99.90;;;;;;5074305;28;20465;-74
2022/03/11 03:43:33;;;;;;;34.55;13.88;;;0.10;99.90;;;;;;5074059;28;20016;-74
2022/03/11 03:45:59;;;;;;;26.50;13.18;;;0.10;99.90;;;;;;5074282;28;20056;-74
2022/03/11 03:48:25;;;;;;;26.80;13.65;;;0.10;99.90;;;;;;5073971;28;20039;-74
2022/03/11 03:50:50;;;;;;;23.58;12.00;;;0.10;99.90;;;;;;5073932;28;20546;-74
2022/03/11 03:53:16;;;;;;;32.13;15.45;;;0.10;99.90;;;;;;5074260;28;20025;-74
2022/03/11 03:55:42;;;;;;;25.42;13.27;;;0.00;99.90;;;;;;5073695;28;20024;-74
2022/03/11 03:58:07;;;;;;;27.65;13.10;;;0.00;99.90;;;;;;5073786;28;20385;-74
2022/03/11 04:00:33;;;;;;;43.00;13.68;;;0.00;99.90;;;;;;5073775;28;20031;-74
2022/03/11 04:02:59;;;;;;;28.88;12.38;;;0.00;99.90;;;;;;5073861;28;20020;-74
2022/03/11 04:05:24;;;;;;;27.58;13.40;;;-0.10;99.90;;;;;;5073718;28;20040;-74
2022/03/11 04:07:50;;;;;;;27.73;13.65;;;-0.10;99.90;;;;;;5073975;28;20016;-74
2022/03/11 04:10:16;;;;;;;29.92;12.98;;;-0.10;99.90;;;;;;5073931;28;20108;-74
2022/03/11 04:12:42;;;;;;;22.75;12.45;;;-0.20;99.90;;;;;;5073726;28;20021;-74
2022/03/11 04:15:08;;;;;;;23.75;11.88;;;-0.20;99.90;;;;;;5073722;28;20078;-74
2022/03/11 04:17:34;;;;;;;28.95;13.00;;;-0.20;99.90;;;;;;5073573;28;20028;-74
2022/03/11 04:20:00;;;;;;;27.55;12.82;;;-0.30;99.90;;;;;;5075387;28;20034;-74
2022/03/11 04:22:26;;;;;;;26.15;13.63;;;-0.30;99.90;;;;;;5077801;28;20028;-74
2022/03/11 04:24:52;;;;;;;24.88;12.43;;;-0.30;99.90;;;;;;5077664;28;20021;-74
2022/03/11 04:27:18;;;;;;;29.73;13.63;;;-0.30;99.90;;;;;;5077357;28;20021;-74
2022/03/11 04:29:43;;;;;;;23.27;12.40;;;-0.30;99.90;;;;;;5077462;28;20036;-74
2022/03/11 04:32:09;;;;;;;23.73;12.63;;;-0.40;99.90;;;;;;5077438;28;20027;-74
2022/03/11 04:34:35;;;;;;;27.20;12.82;;;-0.30;99.90;;;;;;5076314;28;20480;-74
2022/03/11 04:37:00;;;;;;;24.98;12.23;;;-0.40;99.90;;;;;;5077191;28;20024;-75
2022/03/11 04:39:26;;;;;;;24.95;12.80;;;-0.50;99.90;;;;;;5077505;28;20028;-74
2022/03/11 04:41:55;;;;;;;25.48;12.73;;;-0.50;99.90;;;;;;5077355;28;20482;-74
2022/03/11 04:44:21;;;;;;;33.08;12.98;;;-0.50;99.90;;;;;;5077121;28;20511;-74
2022/03/11 04:46:47;;;;;;;22.08;12.60;;;-0.50;99.90;;;;;;5077301;28;20017;-74
2022/03/11 04:49:13;;;;;;;30.02;12.85;;;-0.50;99.90;;;;;;5077094;28;20103;-74
2022/03/11 04:51:38;;;;;;;32.70;13.80;;;-0.50;99.90;;;;;;5075682;28;20067;-74
2022/03/11 04:54:06;;;;;;;27.35;12.90;;;-0.50;99.90;;;;;;5077389;28;20029;-74
2022/03/11 04:56:36;;;;;;;28.83;12.20;;;-0.50;99.90;;;;;;5076822;28;20020;-74
2022/03/11 04:59:02;;;;;;;28.40;13.10;;;-0.40;99.90;;;;;;5076803;28;20473;-74
2022/03/11 05:01:27;;;;;;;27.13;13.13;;;-0.40;99.90;;;;;;5076957;28;20034;-74
2022/03/11 05:03:53;;;;;;;24.90;12.70;;;-0.40;99.90;;;;;;5076854;28;20039;-74
2022/03/11 05:06:18;;;;;;;24.80;12.98;;;-0.40;99.90;;;;;;5076923;28;20035;-74
2022/03/11 05:08:44;;;;;;;27.15;13.32;;;-0.40;99.90;;;;;;5075373;28;20047;-74
2022/03/11 05:11:10;;;;;;;31.70;12.90;;;-0.40;99.90;;;;;;5077202;28;20025;-74
2022/03/11 05:13:35;;;;;;;32.35;12.98;;;-0.40;99.90;;;;;;5076493;28;20076;-74
2022/03/11 05:16:01;;;;;;;34.20;13.25;;;-0.40;99.90;;;;;;5076501;28;20036;-74
2022/03/11 05:18:26;;;;;;;27.27;12.88;;;-0.40;99.90;;;;;;5076525;28;20071;-74
2022/03/11 05:20:52;;;;;;;23.30;11.02;;;-0.40;99.90;;;;;;5076575;28;20020;-74
2022/03/11 05:23:18;;;;;;;27.92;11.52;;;-0.50;99.90;;;;;;5076753;28;20028;-75
2022/03/11 05:25:44;;;;;;;25.83;12.43;;;-0.40;99.90;;;;;;5076247;28;20020;-75
2022/03/11 05:28:09;;;;;;;33.63;12.32;;;-0.40;99.90;;;;;;5076414;28;20029;-75
2022/03/11 05:30:36;;;;;;;28.45;11.50;;;-0.40;99.90;;;;;;5076282;28;20170;-75
2022/03/11 05:33:02;;;;;;;24.13;12.43;;;-0.30;99.90;;;;;;5075944;28;20142;-75
2022/03/11 05:35:28;;;;;;;24.52;11.57;;;-0.20;99.90;;;;;;5076431;28;20111;-74
2022/03/11 05:37:53;;;;;;;27.92;12.23;;;-0.20;99.90;;;;;;5076132;28;20099;-75
2022/03/11 05:40:19;;;;;;;26.98;12.00;;;-0.20;99.90;;;;;;5076110;28;20024;-75
2022/03/11 05:42:44;;;;;;;26.58;12.38;;;-0.30;99.90;;;;;;5076080;28;20032;-75
2022/03/11 05:45:10;;;;;;;30.10;13.07;;;-0.20;99.90;;;;;;5076133;28;20031;-74
2022/03/11 05:47:36;;;;;;;26.02;11.93;;;-0.20;99.90;;;;;;5075846;28;20439;-75
2022/03/11 05:50:03;;;;;;;25.77;11.60;;;-0.20;99.90;;;;;;5075919;28;20024;-75
2022/03/11 05:52:29;;;;;;;32.85;12.27;;;-0.20;99.90;;;;;;5076046;28;20025;-75
2022/03/11 05:54:54;;;;;;;27.40;12.70;;;-0.20;99.90;;;;;;5075881;28;20538;-75
2022/03/11 05:57:20;;;;;;;27.90;11.50;;;-0.20;99.90;;;;;;5075789;28;20021;-75
2022/03/11 05:59:45;;;;;;;25.80;11.60;;;-0.20;99.90;;;;;;5075641;28;20438;-75
2022/03/11 06:02:11;;;;;;;25.90;12.30;;;-0.20;99.90;;;;;;5075719;28;20032;-75
2022/03/11 06:04:37;;;;;;;32.80;12.23;;;-0.20;99.90;;;;;;5075996;28;20016;-75
2022/03/11 06:07:04;;;;;;;34.78;11.15;;;-0.20;99.90;;;;;;5075960;28;20465;-75
2022/03/11 06:09:30;;;;;;;23.38;12.25;;;-0.10;99.90;;;;;;5076045;28;20028;-74
2022/03/11 06:11:56;;;;;;;33.17;11.93;;;-0.10;99.90;;;;;;5075465;28;20028;-74
2022/03/11 06:14:22;;;;;;;25.42;12.50;;;0.00;99.90;;;;;;5074375;28;20384;-74
2022/03/11 06:16:47;;;;;;;39.78;12.85;;;0.00;99.90;;;;;;5075195;28;20036;-75
2022/03/11 06:19:13;;;;;;;23.98;12.20;;;0.00;99.90;;;;;;5075582;28;20028;-75
2022/03/11 06:21:39;;;;;;;23.20;11.27;;;0.10;99.90;;;;;;5075438;28;20028;-74
2022/03/11 06:24:05;;;;;;;26.10;11.82;;;0.10;99.90;;;;;;5075373;28;20639;-75
2022/03/11 06:26:30;;;;;;;27.42;11.05;;;0.10;99.90;;;;;;5075207;28;20035;-74
2022/03/11 06:28:56;;;;;;;26.52;11.35;;;0.20;99.90;;;;;;5075265;28;20384;-74
2022/03/11 06:31:21;;;;;;;24.27;11.02;;;0.20;99.90;;;;;;5075106;28;20454;-74
2022/03/11 06:33:47;;;;;;;23.65;11.32;;;0.20;99.90;;;;;;5075127;28;20032;-75
2022/03/11 06:36:12;;;;;;;21.15;11.35;;;0.30;99.90;;;;;;5074858;28;20086;-74
2022/03/11 06:38:38;;;;;;;26.15;11.27;;;0.40;99.90;;;;;;5074976;28;20032;-74
2022/03/11 06:41:04;;;;;;;25.73;12.27;;;0.30;99.90;;;;;;5075327;28;20033;-74
2022/03/11 06:43:29;;;;;;;29.38;12.10;;;0.40;99.90;;;;;;5074928;28;20024;-74
2022/03/11 06:45:55;;;;;;;28.17;11.10;;;0.40;99.90;;;;;;5074767;28;20028;-75
2022/03/11 06:48:21;;;;;;;31.25;12.77;;;0.60;99.90;;;;;;5074738;28;20020;-74
2022/03/11 06:50:47;;;;;;;27.88;11.50;;;0.70;99.90;;;;;;5074724;28;20021;-74
2022/03/11 06:53:13;;;;;;;24.08;10.90;;;0.80;99.90;;;;;;5074980;28;20036;-74
2022/03/11 06:55:39;;;;;;;27.95;11.50;;;0.90;99.90;;;;;;5074624;28;20024;-74
2022/03/11 06:58:05;;;;;;;29.30;11.25;;;1.00;99.90;;;;;;5074903;28;20522;-75
2022/03/11 07:00:30;;;;;;;28.90;10.95;;;1.10;99.90;;;;;;5074452;28;20094;-74
2022/03/11 07:02:56;;;;;;;24.05;11.82;;;1.20;99.90;;;;;;5074509;28;20031;-75
2022/03/11 07:05:21;;;;;;;25.55;11.07;;;1.30;99.90;;;;;;5074276;28;20393;-75
2022/03/11 07:07:47;;;;;;;22.58;11.20;;;1.40;99.90;;;;;;5074473;28;20469;-74
2022/03/11 07:10:12;;;;;;;21.05;10.90;;;1.50;99.90;;;;;;5074686;28;20067;-74
2022/03/11 07:12:38;;;;;;;31.60;11.50;;;1.50;99.90;;;;;;5074683;28;20430;-74
2022/03/11 07:15:05;;;;;;;22.92;11.00;;;1.70;99.90;;;;;;5074314;28;20077;-74
2022/03/11 07:17:31;;;;;;;28.30;11.68;;;1.70;99.90;;;;;;5074154;28;20024;-74
2022/03/11 07:19:57;;;;;;;20.23;10.98;;;1.90;99.90;;;;;;5074504;28;20024;-75
2022/03/11 07:22:22;;;;;;;20.08;11.00;;;1.90;99.90;;;;;;5074186;28;20021;-75
2022/03/11 07:24:48;;;;;;;25.67;11.40;;;2.00;99.90;;;;;;5074162;28;20104;-75
2022/03/11 07:27:14;;;;;;;25.95;12.10;;;2.00;99.90;;;;;;5074221;28;20020;-75
2022/03/11 07:29:40;;;;;;;26.00;11.82;;;2.10;99.90;;;;;;5072822;28;20025;-74
2022/03/11 07:32:08;;;;;;;25.38;11.23;;;2.10;99.90;;;;;;5074466;28;20093;-75
2022/03/11 07:34:34;;;;;;;25.33;11.50;;;2.20;99.90;;;;;;5074191;28;20074;-75
2022/03/11 07:36:59;;;;;;;21.30;11.13;;;2.20;99.90;;;;;;5073914;28;20021;-74
2022/03/11 07:39:25;;;;;;;25.25;11.27;;;2.30;99.90;;;;;;5073967;28;20134;-74
2022/03/11 07:41:51;;;;;;;26.40;11.02;;;2.40;99.90;;;;;;5073995;28;20099;-71
2022/03/11 07:44:17;;;;;;;23.67;12.50;;;2.50;99.90;;;;;;5073764;28;20370;-70
2022/03/11 07:46:43;;;;;;;27.42;10.00;;;2.70;99.90;;;;;;5073502;28;20179;-70
2022/03/11 07:49:09;;;;;;;24.83;11.55;;;2.70;99.90;;;;;;5073833;28;20024;-70
2022/03/11 07:51:35;;;;;;;21.30;10.50;;;2.90;99.90;;;;;;5074139;28;20033;-69
2022/03/11 07:54:01;;;;;;;22.17;10.52;;;3.00;99.90;;;;;;5073453;28;20495;-70
2022/03/11 07:56:27;;;;;;;26.40;10.50;;;3.10;99.90;;;;;;5073299;28;20496;-71
2022/03/11 07:58:59;;;;;;;26.80;10.18;;;3.10;99.90;;;;;;5073746;28;20484;-70
2022/03/11 08:01:25;;;;;;;24.37;10.20;;;3.30;99.90;;;;;;5073791;28;20480;-71
2022/03/11 08:03:52;;;;;;;27.38;10.77;;;3.40;99.90;;;;;;5073499;28;20025;-71
2022/03/11 08:06:17;;;;;;;22.08;10.45;;;3.40;99.90;;;;;;5073378;28;20479;-71
2022/03/11 08:08:43;;;;;;;19.27;10.65;;;3.50;99.90;;;;;;5073694;28;20032;-71
2022/03/11 08:11:09;;;;;;;21.08;10.10;;;3.60;99.90;;;;;;5073773;28;20029;-71
2022/03/11 08:13:35;;;;;;;29.50;10.30;;;3.60;99.90;;;;;;5073517;28;20031;-70
2022/03/11 08:16:02;;;;;;;25.85;10.93;;;3.70;99.90;;;;;;5073110;28;20039;-71
2022/03/11 08:18:28;;;;;;;27.85;10.57;;;3.70;99.90;;;;;;5073241;28;20039;-72
2022/03/11 08:20:53;;;;;;;25.88;10.70;;;3.70;99.90;;;;;;5073319;28;20099;-71
2022/03/11 08:23:19;;;;;;;24.85;10.88;;;3.90;99.90;;;;;;5073203;28;20033;-69
2022/03/11 08:25:45;;;;;;;19.10;10.13;;;4.00;99.90;;;;;;5073261;28;20024;-71
2022/03/11 08:28:13;;;;;;;24.75;11.23;;;4.10;99.90;;;;;;5073644;28;20020;-70
2022/03/11 08:30:40;;;;;;;24.80;10.50;;;4.30;99.90;;;;;;5073375;28;20021;-71
2022/03/11 08:33:06;;;;;;;22.08;10.50;;;4.40;99.90;;;;;;5073517;28;20017;-71
2022/03/11 08:35:32;;;;;;;22.00;10.20;;;4.60;99.90;;;;;;5073406;28;20025;-72
2022/03/11 08:37:58;;;;;;;25.20;9.85;;;4.60;99.90;;;;;;5073396;28;20028;-72
2022/03/11 08:40:26;;;;;;;19.27;9.52;;;4.70;99.90;;;;;;5073299;28;20147;-71
2022/03/11 08:42:52;;;;;;;23.55;10.05;;;4.70;99.90;;;;;;5073325;28;20461;-72
2022/03/11 08:45:21;;;;;;;26.02;10.77;;;4.80;99.90;;;;;;5073081;28;20051;-72
2022/03/11 08:47:50;;;;;;;17.25;9.75;;;5.00;99.90;;;;;;5073052;28;20546;-71
2022/03/11 08:50:16;;;;;;;20.23;9.07;;;5.10;99.90;;;;;;5073288;28;20457;-71
2022/03/11 08:52:42;;;;;;;21.90;8.65;;;5.30;99.90;;;;;;5073139;28;20051;-70
2022/03/11 08:55:08;;;;;;;26.35;9.43;;;5.40;99.90;;;;;;5073021;28;20392;-72
2022/03/11 08:57:35;;;;;;;27.58;10.35;;;5.40;99.90;;;;;;5072962;28;20031;-72
2022/03/11 09:00:12;;;;;;;24.70;9.80;;;5.40;99.90;;;;;;5072906;28;20116;-72
2022/03/11 09:02:38;;;;;;;22.27;9.68;;;5.50;99.90;;;;;;5073290;28;20021;-72
2022/03/11 09:05:04;;;;;;;23.20;9.73;;;5.50;99.90;;;;;;5071699;28;20023;-70
2022/03/11 09:07:30;;;;;;;19.77;8.80;;;5.70;99.90;;;;;;5074643;28;20163;-72
2022/03/11 09:09:56;;;;;;;26.48;9.90;;;5.60;99.90;;;;;;5076458;28;20060;-72
2022/03/11 09:12:22;;;;;;;22.15;8.70;;;5.70;99.90;;;;;;5076421;28;20056;-72
2022/03/11 09:14:47;;;;;;;19.00;8.88;;;5.80;99.90;;;;;;5076473;28;20052;-72
2022/03/11 09:17:13;;;;;;;24.95;10.00;;;6.10;99.90;;;;;;5076676;28;20075;-71
2022/03/11 09:19:39;;;;;;;18.27;9.10;;;6.10;99.90;;;;;;5076237;28;20082;-71
2022/03/11 09:22:05;;;;;;;23.02;9.27;;;6.20;99.90;;;;;;5076261;28;20065;-71
2022/03/11 09:24:31;;;;;;;23.70;9.15;;;6.40;99.90;;;;;;5076687;28;20017;-71
2022/03/11 09:26:58;;;;;;;18.02;9.30;;;6.60;99.90;;;;;;5076086;28;20032;-72
2022/03/11 09:29:28;;;;;;;20.73;9.40;;;6.80;99.90;;;;;;5076685;28;20024;-70
2022/03/11 09:31:54;;;;;;;20.80;8.55;;;6.90;99.90;;;;;;5076336;28;20487;-71
2022/03/11 09:34:20;;;;;;;26.02;8.90;;;6.90;99.90;;;;;;5076308;28;20110;-71
2022/03/11 09:36:45;;;;;;;23.38;10.25;;;6.80;99.30;;;;;;5075956;28;20070;-71
2022/03/11 09:39:11;;;;;;;17.80;9.20;;;6.90;98.90;;;;;;5075894;28;20410;-71
2022/03/11 09:41:37;;;;;;;18.02;9.15;;;6.70;99.00;;;;;;5076036;28;20017;-71
2022/03/11 09:44:03;;;;;;;28.33;8.38;;;6.90;99.90;;;;;;5076045;28;20074;-71
2022/03/11 09:46:29;;;;;;;24.17;9.15;;;7.20;97.10;;;;;;5076058;28;20028;-71
2022/03/11 09:48:56;;;;;;;15.85;8.40;;;7.20;96.80;;;;;;5075747;28;20040;-71
2022/03/11 09:51:22;;;;;;;18.08;8.18;;;7.20;97.80;;;;;;5076039;28;20487;-71
2022/03/11 09:53:48;;;;;;;19.27;8.52;;;7.10;94.60;;;;;;5075651;28;20033;-71
2022/03/11 09:56:13;;;;;;;17.60;8.60;;;7.40;97.30;;;;;;5075534;28;20035;-71
2022/03/11 09:58:39;;;;;;;15.60;8.18;;;7.50;95.20;;;;;;5075476;28;20108;-71
2022/03/11 10:01:06;;;;;;;16.95;8.20;;;7.60;95.00;;;;;;5074256;28;20494;-71
2022/03/11 10:03:31;;;;;;;16.70;8.30;;;7.80;95.00;;;;;;5075522;28;20024;-71
2022/03/11 10:05:57;;;;;;;27.00;8.13;;;7.90;93.50;;;;;;5075308;28;20384;-71
2022/03/11 10:08:31;;;;;;;21.85;8.43;;;8.10;96.30;;;;;;5075471;28;20047;-70
2022/03/11 10:11:20;;;;;;;14.00;7.55;;;8.20;92.40;;;;;;5075300;28;20028;-71
2022/03/11 10:13:46;;;;;;;18.15;8.88;;;8.40;93.30;;;;;;5075483;28;20542;-71
2022/03/11 10:16:25;;;;;;;17.90;7.60;;;8.70;94.30;;;;;;5075246;28;20040;-71
2022/03/11 10:19:13;;;;;;;17.52;8.70;;;8.60;90.30;;;;;;5074659;28;20029;-71
2022/03/11 10:21:43;;;;;;;15.85;7.88;;;8.30;88.90;;;;;;5075353;28;20032;-71
2022/03/11 10:24:18;;;;;;;18.55;8.13;;;8.50;90.90;;;;;;5075376;28;20025;-71
2022/03/11 10:26:51;;;;;;;16.55;8.93;;;8.50;89.10;;;;;;5074847;28;20016;-71
2022/03/11 10:29:19;;;;;;;14.13;8.13;;;8.80;93.30;;;;;;5074911;28;20077;-71
2022/03/11 10:31:47;;;;;;;33.80;8.18;;;8.90;88.70;;;;;;5074878;28;20036;-71
2022/03/11 10:34:29;;;;;;;19.45;7.65;;;8.80;86.30;;;;;;5074961;28;20029;-71
2022/03/11 10:37:02;;;;;;;20.38;7.93;;;9.00;88.20;;;;;;5074900;28;20025;-71
2022/03/11 10:39:32;;;;;;;21.40;8.15;;;9.30;90.30;;;;;;5074634;28;20021;-71
2022/03/11 10:42:12;;;;;;;26.52;7.80;;;9.50;87.80;;;;;;5074958;28;20016;-70
2022/03/11 10:44:39;;;;;;;21.23;8.27;;;9.80;86.60;;;;;;5074847;28;20031;-73
2022/03/11 10:47:19;;;;;;;13.93;7.50;;;9.60;82.30;;;;;;5074519;28;20032;-70
2022/03/11 10:49:57;;;;;;;15.40;7.20;;;9.70;81.30;;;;;;5074751;28;20082;-70
2022/03/11 10:52:47;;;;;;;16.48;7.38;;;9.40;77.20;;;;;;5073377;28;20469;-69
2022/03/11 10:55:26;;;;;;;20.10;7.38;;;9.50;77.40;;;;;;5074772;28;20036;-70
2022/03/11 10:57:53;;;;;;;14.98;6.97;;;9.30;75.50;;;;;;5074560;28;20521;-70
2022/03/11 11:00:27;;;;;;;15.38;8.00;;;9.10;74.70;;;;;;5074583;28;20024;-70
2022/03/11 11:02:58;;;;;;;18.27;7.10;;;9.40;79.80;;;;;;5074510;28;20534;-70
2022/03/11 11:05:25;;;;;;;16.42;7.65;;;9.70;78.50;;;;;;5074088;28;20032;-70
2022/03/11 11:07:51;;;;;;;15.10;6.45;;;10.10;76.60;;;;;;5074171;28;20495;-72
2022/03/11 11:10:19;;;;;;;19.17;7.93;;;10.20;76.40;;;;;;5074209;28;20028;-71
2022/03/11 11:12:46;;;;;;;26.60;7.75;;;10.20;74.40;;;;;;5074140;28;20036;-73
2022/03/11 11:15:12;;;;;;;14.18;7.25;;;9.90;74.00;;;;;;5074171;28;20033;-76
2022/03/11 11:17:43;;;;;;;16.75;7.13;;;10.30;75.20;;;;;;5073917;28;20510;-73
2022/03/11 11:20:49;;;;;;;16.90;7.15;;;10.50;73.90;;;;;;5074249;28;20124;-73
2022/03/11 11:23:16;;;;;;;11.52;6.60;;;10.40;73.50;;;;;;5070795;28;20107;-75
2022/03/11 11:25:43;;;;;;;17.13;7.82;;;10.40;70.50;;;;;;5073806;28;20016;-74
2022/03/11 11:28:22;;;;;;;15.18;7.70;;;10.70;71.90;;;;;;5073972;28;20095;-72
2022/03/11 11:30:53;;;;;;;20.63;7.53;;;10.70;69.50;;;;;;5073008;28;20473;-71
2022/03/11 11:33:19;;;;;;;14.63;7.18;;;10.60;69.10;;;;;;5073861;28;20031;-71
2022/03/11 11:35:45;;;;;;;11.98;6.40;;;10.60;69.80;;;;;;5073732;28;20111;-71
2022/03/11 11:38:35;;;;;;;13.75;6.55;;;10.50;67.50;;;;;;5073883;28;20020;-72
2022/03/11 11:41:18;;;;;;;14.07;6.60;;;10.90;70.60;;;;;;5073704;28;20396;-72
2022/03/11 11:43:59;;;;;;;18.25;7.32;;;11.20;68.50;;;;;;5072513;28;20117;-71
2022/03/11 11:46:26;;;;;;;16.95;6.70;;;11.60;67.90;;;;;;5073744;28;20036;-71
2022/03/11 11:48:52;;;;;;;21.33;6.88;;;12.10;69.70;;;;;;5073950;28;20024;-72
2022/03/11 11:51:23;;;;;;;13.02;6.40;;;12.10;64.50;;;;;;5072475;28;20031;-71
2022/03/11 11:53:49;;;;;;;13.27;6.30;;;12.30;66.00;;;;;;5073966;28;20116;-71
2022/03/11 11:56:36;;;;;;;21.23;7.28;;;12.40;63.40;;;;;;5073413;28;20029;-72
2022/03/11 11:59:19;;;;;;;16.40;6.93;;;12.20;60.40;;;;;;5073543;28;20089;-72
2022/03/11 12:01:46;;;;;;;17.63;6.53;;;12.10;60.80;;;;;;5073968;28;20021;-71
2022/03/11 12:04:26;;;;;;;13.63;6.85;;;12.20;61.30;;;;;;5073437;28;20048;-71
2022/03/11 12:06:59;;;;;;;14.15;6.70;;;12.50;57.90;;;;;;5073664;28;20017;-72
2022/03/11 12:09:40;;;;;;;18.67;7.15;;;12.40;57.30;;;;;;5073834;28;20059;-72
2022/03/11 12:12:08;;;;;;;12.35;5.93;;;12.30;56.30;;;;;;5073732;28;20024;-72
2022/03/11 12:14:53;;;;;;;21.05;6.15;;;12.40;57.60;;;;;;5073952;28;20016;-72
2022/03/11 12:17:45;;;;;;;22.33;6.20;;;13.00;59.50;;;;;;5073188;28;20117;-72
2022/03/11 12:20:27;;;;;;;22.38;6.53;;;13.00;55.20;;;;;;5073571;28;20035;-72
2022/03/11 12:22:57;;;;;;;16.30;6.07;;;12.80;53.90;;;;;;5072097;28;20024;-72
2022/03/11 12:25:28;;;;;;;10.68;6.20;;;12.70;54.50;;;;;;5073020;28;20017;-72
2022/03/11 12:28:06;;;;;;;11.65;5.70;;;12.70;53.50;;;;;;5073408;28;20463;-71
2022/03/11 12:30:48;;;;;;;10.65;6.00;;;13.00;53.60;;;;;;5074128;28;20365;-72
2022/03/11 12:33:17;;;;;;;14.48;5.78;;;12.90;51.80;;;;;;5073317;28;20078;-71
2022/03/11 12:35:45;;;;;;;17.52;6.45;;;13.20;54.80;;;;;;5073137;28;20078;-72
2022/03/11 12:38:16;;;;;;;16.77;6.00;;;13.90;55.80;;;;;;5074041;28;20107;-72
2022/03/11 12:40:43;;;;;;;14.57;5.97;;;14.50;55.00;;;;;;5074099;28;20028;-71